createdAt,value
2023-02-17T00:00:20.210Z,0
2023-02-17T00:05:17.235Z,0
2023-02-17T00:10:20.171Z,0
2023-02-17T00:15:17.280Z,0
2023-02-17T00:20:20.526Z,0
2023-02-17T00:25:17.252Z,0
2023-02-17T00:30:20.372Z,0
2023-02-17T00:35:17.257Z,0
2023-02-17T00:40:20.228Z,0
2023-02-17T00:45:20.233Z,0
2023-02-17T00:50:20.197Z,0
2023-02-17T00:55:20.567Z,0
2023-02-17T01:00:20.209Z,0
2023-02-17T01:05:17.246Z,0
2023-02-17T01:10:20.254Z,0
2023-02-17T01:15:20.308Z,0
2023-02-17T01:20:20.209Z,0
2023-02-17T01:25:17.293Z,0
2023-02-17T01:30:20.795Z,0
2023-02-17T01:35:20.229Z,0
2023-02-17T01:40:20.185Z,0
2023-02-17T01:45:17.362Z,0
2023-02-17T01:50:20.297Z,0
2023-02-17T01:55:20.242Z,0
2023-02-17T02:00:20.270Z,0
2023-02-17T02:05:20.504Z,0
2023-02-17T02:10:17.097Z,0
2023-02-17T02:15:20.317Z,0
2023-02-17T02:20:20.363Z,0
2023-02-17T02:25:17.325Z,0
2023-02-17T02:30:20.324Z,0
2023-02-17T02:35:20.285Z,0
2023-02-17T02:40:20.506Z,0
2023-02-17T02:45:20.300Z,0
2023-02-17T02:50:17.322Z,0
2023-02-17T02:55:17.365Z,0
2023-02-17T03:00:17.374Z,0
2023-02-17T03:05:20.347Z,0
2023-02-17T03:10:17.328Z,0
2023-02-17T03:15:20.628Z,0
2023-02-17T03:20:17.354Z,0
2023-02-17T03:25:20.342Z,0
2023-02-17T03:30:17.450Z,0
2023-02-17T03:35:20.359Z,0
2023-02-17T03:40:17.355Z,0
2023-02-17T03:45:20.365Z,0
2023-02-17T03:50:20.664Z,0
2023-02-17T03:55:20.329Z,0
2023-02-17T04:00:20.309Z,0
2023-02-17T04:05:17.468Z,0
2023-02-17T04:10:18.357Z,0
2023-02-17T04:15:18.403Z,0
2023-02-17T04:20:20.352Z,0
2023-02-17T04:25:18.627Z,0
2023-02-17T04:30:15.421Z,0
2023-02-17T04:35:15.301Z,0
2023-02-17T04:40:15.451Z,0
2023-02-17T04:45:18.373Z,0
2023-02-17T04:50:20.694Z,0
2023-02-17T04:55:15.488Z,0
2023-02-17T05:00:19.930Z,0
2023-02-17T05:05:19.632Z,0
2023-02-17T05:10:19.651Z,0
2023-02-17T05:15:16.654Z,0
2023-02-17T05:20:19.621Z,0
2023-02-17T05:25:19.610Z,0
2023-02-17T05:30:19.634Z,0
2023-02-17T05:35:19.948Z,0
2023-02-17T05:40:16.582Z,0
2023-02-17T05:45:19.665Z,0
2023-02-17T05:50:16.708Z,0
2023-02-17T05:55:19.771Z,0
2023-02-17T06:00:16.673Z,0
2023-02-17T06:05:19.698Z,0
2023-02-17T06:10:17.017Z,0
2023-02-17T06:15:19.685Z,0
2023-02-17T06:20:19.669Z,0
2023-02-17T06:25:16.730Z,0
2023-02-17T06:30:19.787Z,0
2023-02-17T06:35:19.664Z,0
2023-02-17T06:40:16.702Z,0
2023-02-17T06:45:20.069Z,0
2023-02-17T06:50:16.746Z,0
2023-02-17T06:55:16.570Z,0
2023-02-17T07:00:16.712Z,0
2023-02-17T07:05:19.717Z,0
2023-02-17T07:10:19.722Z,0
2023-02-17T07:15:16.777Z,0
2023-02-17T07:20:20.004Z,0
2023-02-17T07:25:16.772Z,0
2023-02-17T07:30:19.728Z,0
2023-02-17T07:35:16.629Z,0
2023-02-17T07:40:19.732Z,0
2023-02-17T07:45:19.760Z,0
2023-02-17T07:50:19.726Z,0
2023-02-17T07:55:19.903Z,0
2023-02-17T08:00:19.730Z,0
2023-02-17T08:05:19.776Z,0
2023-02-17T08:10:19.731Z,0
2023-02-17T08:15:16.776Z,0
2023-02-17T08:20:19.727Z,0
2023-02-17T08:25:19.786Z,0
2023-02-17T08:30:20.075Z,0
2023-02-17T08:35:19.789Z,0
2023-02-17T08:40:16.828Z,0
2023-02-17T08:45:19.761Z,0
2023-02-17T08:50:16.822Z,0
2023-02-17T08:55:16.849Z,0
2023-02-17T09:00:19.909Z,0
2023-02-17T09:05:20.045Z,0
2023-02-17T09:10:19.809Z,0
2023-02-17T09:15:16.804Z,0
2023-02-17T09:20:25.173Z,0
2023-02-17T09:25:16.823Z,0
2023-02-17T09:30:19.874Z,0
2023-02-17T09:35:16.677Z,0
2023-02-17T09:40:20.197Z,0
2023-02-17T09:45:19.845Z,0
2023-02-17T09:50:16.872Z,0
2023-02-17T09:55:19.883Z,0
2023-02-17T10:00:16.952Z,0
2023-02-17T10:05:19.925Z,0
2023-02-17T10:10:16.890Z,0
2023-02-17T10:15:20.227Z,0
2023-02-17T10:20:19.880Z,0
2023-02-17T10:25:16.884Z,0
2023-02-17T10:30:19.927Z,0
2023-02-17T10:35:16.969Z,0
2023-02-17T10:40:19.861Z,0
2023-02-17T10:45:19.873Z,0
2023-02-17T10:50:17.195Z,0
2023-02-17T10:55:23.108Z,0
2023-02-17T11:00:16.910Z,0
2023-02-17T11:05:19.862Z,0
2023-02-17T11:10:16.921Z,0
2023-02-17T11:15:19.913Z,0
2023-02-17T11:20:20.220Z,0
2023-02-17T11:25:19.865Z,0
2023-02-17T11:30:19.981Z,0
2023-02-17T11:35:16.955Z,0
2023-02-17T11:40:21.704Z,0
2023-02-17T11:45:19.893Z,0
2023-02-17T11:50:31.791Z,0
2023-02-17T11:55:20.246Z,4
2023-02-17T12:00:16.936Z,7
2023-02-17T12:05:19.902Z,10
2023-02-17T12:10:16.983Z,13
2023-02-17T12:15:19.890Z,16
2023-02-17T12:20:17.107Z,13
2023-02-17T12:25:16.991Z,15
2023-02-17T12:30:17.463Z,20
2023-02-17T12:35:19.957Z,20
2023-02-17T12:40:16.945Z,22
2023-02-17T12:45:19.927Z,27
2023-02-17T12:50:20.086Z,28
2023-02-17T12:55:21.281Z,34
2023-02-17T13:00:16.984Z,45
2023-02-17T13:05:17.261Z,55
2023-02-17T13:10:19.932Z,60
2023-02-17T13:15:20.005Z,64
2023-02-17T13:20:17.009Z,72
2023-02-17T13:25:19.991Z,76
2023-02-17T13:30:17.056Z,76
2023-02-17T13:35:17.035Z,81
2023-02-17T13:40:20.270Z,88
2023-02-17T13:45:17.076Z,85
2023-02-17T13:50:20.029Z,78
2023-02-17T13:55:19.952Z,73
2023-02-17T14:00:19.965Z,65
2023-02-17T14:05:17.042Z,63
2023-02-17T14:10:16.963Z,71
2023-02-17T14:15:17.252Z,87
2023-02-17T14:20:20.082Z,84
2023-02-17T14:25:19.983Z,81
2023-02-17T14:30:17.046Z,84
2023-02-17T14:35:20.023Z,87
2023-02-17T14:40:20.041Z,83
2023-02-17T14:45:17.024Z,82
2023-02-17T14:50:20.369Z,77
2023-02-17T14:55:19.994Z,81
2023-02-17T15:00:20.022Z,82
2023-02-17T15:05:20.037Z,75
2023-02-17T15:10:20.016Z,67
2023-02-17T15:15:20.019Z,59
2023-02-17T15:20:20.053Z,50
2023-02-17T15:25:17.276Z,36
2023-02-17T15:30:17.208Z,37
2023-02-17T15:35:17.076Z,37
2023-02-17T15:40:20.170Z,45
2023-02-17T15:45:20.037Z,48
2023-02-17T15:50:18.158Z,52
2023-02-17T15:55:20.376Z,56
2023-02-17T16:00:17.074Z,55
2023-02-17T16:05:20.062Z,55
2023-02-17T16:10:17.128Z,62
2023-02-17T16:15:20.132Z,70
2023-02-17T16:20:20.086Z,55
2023-02-17T16:25:17.085Z,61
2023-02-17T16:30:17.466Z,64
2023-02-17T16:35:20.102Z,72
2023-02-17T16:40:17.109Z,83
2023-02-17T16:45:20.162Z,91
2023-02-17T16:50:17.183Z,107
2023-02-17T16:55:20.166Z,108
2023-02-17T17:00:20.423Z,99
2023-02-17T17:05:17.121Z,82
2023-02-17T17:10:17.481Z,80
2023-02-17T17:15:20.137Z,95
2023-02-17T17:20:20.093Z,113
2023-02-17T17:25:16.954Z,110
2023-02-17T17:30:20.269Z,117
2023-02-17T17:35:17.482Z,126
2023-02-17T17:40:20.153Z,114
2023-02-17T17:45:20.172Z,96
2023-02-17T17:50:20.111Z,89
2023-02-17T17:55:20.164Z,78
2023-02-17T18:00:20.109Z,68
2023-02-17T18:05:17.069Z,80
2023-02-17T18:10:17.407Z,100
2023-02-17T18:15:17.226Z,101
2023-02-17T18:20:20.170Z,91
2023-02-17T18:25:17.159Z,79
2023-02-17T18:30:20.282Z,74
2023-02-17T18:35:20.134Z,73
2023-02-17T18:40:20.338Z,77
2023-02-17T18:45:20.136Z,67
2023-02-17T18:50:20.153Z,64
2023-02-17T18:55:20.142Z,70
2023-02-17T19:00:20.143Z,69
2023-02-17T19:05:17.253Z,56
2023-02-17T19:10:20.179Z,41
2023-02-17T19:15:17.487Z,5
2023-02-17T19:20:17.091Z,6
2023-02-17T19:25:17.215Z,11
2023-02-17T19:30:17.259Z,14
2023-02-17T19:35:17.217Z,22
2023-02-17T19:40:20.325Z,31
2023-02-17T19:45:20.375Z,34
2023-02-17T19:50:20.164Z,38
2023-02-17T19:55:20.241Z,44
2023-02-17T20:00:17.234Z,28
2023-02-17T20:05:20.209Z,18
2023-02-17T20:10:20.296Z,16
2023-02-17T20:15:17.231Z,16
2023-02-17T20:20:17.551Z,18
2023-02-17T20:25:20.252Z,20
2023-02-17T20:30:20.256Z,19
2023-02-17T20:35:20.182Z,23
2023-02-17T20:40:20.188Z,13
2023-02-17T20:45:17.238Z,10
2023-02-17T20:50:17.255Z,8
2023-02-17T20:55:17.504Z,8
2023-02-17T21:00:20.260Z,8
2023-02-17T21:05:20.253Z,12
2023-02-17T21:10:20.235Z,8
2023-02-17T21:15:17.260Z,6
2023-02-17T21:20:20.270Z,7
2023-02-17T21:25:20.539Z,4
2023-02-17T21:30:20.311Z,4
2023-02-17T21:35:20.322Z,7
2023-02-17T21:40:20.276Z,7
2023-02-17T21:45:17.407Z,6
2023-02-17T21:50:17.328Z,6
2023-02-17T21:55:20.341Z,1
2023-02-17T22:00:20.634Z,0
2023-02-17T22:05:17.339Z,0
2023-02-17T22:10:20.309Z,0
2023-02-17T22:15:20.316Z,0
2023-02-17T22:20:20.308Z,0
2023-02-17T22:25:17.364Z,0
2023-02-17T22:30:17.414Z,0
2023-02-17T22:35:20.674Z,0
2023-02-17T22:40:17.216Z,0
2023-02-17T22:45:17.352Z,0
2023-02-17T22:50:20.343Z,0
2023-02-17T22:55:20.346Z,0
2023-02-17T23:00:20.290Z,0
2023-02-17T23:05:17.366Z,0
2023-02-17T23:10:20.664Z,0
2023-02-17T23:15:20.347Z,0
2023-02-17T23:20:20.303Z,0
2023-02-17T23:25:20.356Z,0
2023-02-17T23:30:17.437Z,0
2023-02-17T23:35:20.525Z,0
2023-02-17T23:40:20.671Z,0
2023-02-17T23:45:17.637Z,0
2023-02-17T23:50:18.331Z,0
2023-02-17T23:55:17.409Z,0
